Time;durP1;ratioP1;P1;durP2;ratioP2;P2;SDS_P1;SDS_P2;PMS_P1;PMS_P2;Temp;Humidity;BMP_temperature;BMP_pressure;BME280_temperature;BME280_humidity;BME280_pressure;Samples;Min_cycle;Max_cycle;Signal;HPM_P1;HPM_P2
2023/01/31 00:01:07;;;;;;;94.57;32.67;;;8.20;57.00;;;;;;5005082;28;20458;-87
2023/01/31 00:03:33;;;;;;;16.73;8.57;;;8.30;57.00;;;;;;4972563;28;20466;-86
2023/01/31 00:06:14;;;;;;;18.77;9.20;;;8.30;56.90;;;;;;4975165;28;20450;-86
2023/01/31 00:08:43;;;;;;;6.20;4.30;;;8.40;56.60;;;;;;4970827;28;20562;-87
2023/01/31 00:11:10;;;;;;;16.60;5.90;;;8.30;56.80;;;;;;4979210;28;20967;-85
2023/01/31 00:13:38;;;;;;;9.57;4.47;;;8.10;57.20;;;;;;4978324;28;20845;-87
2023/01/31 00:16:06;;;;;;;10.07;5.60;;;7.90;57.80;;;;;;4984755;28;20474;-87
2023/01/31 00:18:33;;;;;;;13.93;8.87;;;8.00;57.70;;;;;;4971218;28;20465;-87
2023/01/31 00:21:05;;;;;;;10.17;5.10;;;8.10;57.50;;;;;;4970942;28;20466;-86
2023/01/31 00:23:32;;;;;;;14.10;4.73;;;8.00;57.80;;;;;;5002822;28;20475;-87
2023/01/31 00:26:09;;;;;;;10.73;4.60;;;7.80;58.40;;;;;;4987128;28;21138;-87
2023/01/31 00:28:37;;;;;;;11.23;3.67;;;7.60;58.90;;;;;;4984823;28;20497;-86
2023/01/31 00:31:04;;;;;;;6.13;4.27;;;7.70;58.80;;;;;;5007491;28;20447;-87
2023/01/31 00:33:31;;;;;;;6.10;3.43;;;7.50;59.20;;;;;;4973634;28;20722;-87
2023/01/31 00:35:58;;;;;;;9.00;4.37;;;7.50;59.40;;;;;;4990068;28;20481;-88
2023/01/31 00:38:25;;;;;;;11.57;3.97;;;7.50;59.20;;;;;;5003671;28;20443;-85
2023/01/31 00:40:52;;;;;;;14.33;3.90;;;7.30;59.10;;;;;;5002539;28;20814;-88
2023/01/31 00:43:21;;;;;;;9.13;4.00;;;7.50;59.60;;;;;;4970702;28;20497;-88
2023/01/31 00:45:48;;;;;;;7.67;4.27;;;7.60;58.90;;;;;;4978247;28;20442;-87
2023/01/31 00:48:15;;;;;;;12.57;3.90;;;7.70;58.90;;;;;;4984699;28;20454;-87
2023/01/31 00:50:43;;;;;;;12.23;3.80;;;7.90;58.30;;;;;;5003081;28;20586;-88
2023/01/31 00:53:11;;;;;;;13.57;3.67;;;7.70;58.20;;;;;;4969877;28;20476;-88
2023/01/31 00:55:38;;;;;;;9.03;4.03;;;7.70;58.80;;;;;;4971969;28;20478;-85
2023/01/31 00:58:05;;;;;;;5.33;3.40;;;7.60;58.90;;;;;;4992109;28;20811;-86
2023/01/31 01:00:33;;;;;;;11.23;4.63;;;7.90;58.80;;;;;;4981216;28;20470;-86
2023/01/31 01:03:00;;;;;;;11.77;3.90;;;7.90;57.80;;;;;;4970141;28;20446;-84
2023/01/31 01:05:29;;;;;;;6.93;3.40;;;7.80;58.10;;;;;;4989614;28;20561;-88
2023/01/31 01:07:56;;;;;;;7.03;4.37;;;7.90;58.20;;;;;;4970393;28;20457;-86
2023/01/31 01:10:24;;;;;;;10.43;5.27;;;7.90;58.00;;;;;;4973040;28;20465;-88
2023/01/31 01:12:50;;;;;;;8.53;4.07;;;7.70;58.30;;;;;;4987785;28;20933;-87
2023/01/31 01:15:18;;;;;;;10.33;4.30;;;7.50;58.60;;;;;;4985994;28;21013;-88
2023/01/31 01:17:46;;;;;;;9.90;3.83;;;7.60;58.80;;;;;;4970684;28;20462;-88
2023/01/31 01:20:13;;;;;;;4.43;3.10;;;7.50;58.50;;;;;;4979145;28;20446;-86
2023/01/31 01:22:41;;;;;;;10.40;5.47;;;7.40;59.20;;;;;;4985747;28;20461;-86
2023/01/31 01:25:09;;;;;;;8.07;3.47;;;7.50;59.00;;;;;;5002860;28;20454;-87
2023/01/31 01:27:36;;;;;;;9.07;4.17;;;7.50;59.00;;;;;;4969872;28;20538;-86
2023/01/31 01:30:05;;;;;;;8.90;3.60;;;7.60;58.50;;;;;;5000719;28;20505;-87
2023/01/31 01:32:32;;;;;;;8.53;3.90;;;7.80;58.40;;;;;;4984577;28;20494;-88
2023/01/31 01:35:00;;;;;;;5.57;4.20;;;7.90;58.10;;;;;;5001420;28;20473;-86
2023/01/31 01:37:27;;;;;;;8.20;3.80;;;8.00;57.40;;;;;;4961337;28;20458;-85
2023/01/31 01:39:54;;;;;;;7.60;4.03;;;7.80;58.00;;;;;;4984034;28;20450;-87
2023/01/31 01:42:23;;;;;;;17.43;4.60;;;7.90;58.10;;;;;;4985549;28;20443;-87
2023/01/31 01:44:52;;;;;;;16.63;4.50;;;8.00;57.90;;;;;;4981026;28;20999;-88
2023/01/31 01:47:26;;;;;;;12.37;4.23;;;8.00;57.80;;;;;;4986028;28;20449;-88
2023/01/31 01:49:58;;;;;;;10.70;5.03;;;8.00;57.70;;;;;;4984192;28;20439;-87
2023/01/31 01:52:29;;;;;;;4.80;3.93;;;7.90;58.00;;;;;;4969184;28;20525;-87
2023/01/31 01:55:01;;;;;;;7.47;3.57;;;7.90;57.60;;;;;;4968858;28;21051;-89
2023/01/31 01:57:36;;;;;;;11.30;4.43;;;7.70;58.20;;;;;;5000398;28;20473;-86
2023/01/31 02:00:10;;;;;;;10.63;5.23;;;7.60;58.70;;;;;;4983504;28;20462;-88
2023/01/31 02:02:43;;;;;;;9.03;4.33;;;7.80;58.40;;;;;;5019969;28;20537;-85
2023/01/31 02:05:12;;;;;;;8.40;4.47;;;7.80;58.10;;;;;;4966883;28;20473;-87
2023/01/31 02:07:44;;;;;;;12.93;5.30;;;7.80;58.40;;;;;;5019837;28;20446;-86
2023/01/31 02:10:15;;;;;;;13.97;3.77;;;7.80;58.30;;;;;;4978651;28;20451;-87
2023/01/31 02:12:42;;;;;;;13.93;5.17;;;7.80;58.40;;;;;;4965172;28;20455;-87
2023/01/31 02:15:10;;;;;;;42.30;14.13;;;7.60;58.60;;;;;;4992980;28;20820;-87
2023/01/31 02:17:37;;;;;;;30.10;13.93;;;7.30;59.30;;;;;;4970415;28;20485;-87
2023/01/31 02:20:53;;;;;;;7.43;3.80;;;7.50;59.20;;;;;;4984894;28;20864;-88
2023/01/31 02:23:47;;;;;;;17.43;6.57;;;7.40;59.70;;;;;;4971965;28;21008;-88
2023/01/31 02:26:47;;;;;;;14.47;8.40;;;7.40;59.40;;;;;;4975428;28;20450;-87
2023/01/31 02:29:30;;;;;;;8.40;4.73;;;7.60;59.30;;;;;;4975863;28;20443;-86
2023/01/31 02:32:46;;;;;;;9.63;3.90;;;7.50;59.40;;;;;;4978612;28;20466;-87
2023/01/31 02:35:21;;;;;;;8.50;4.53;;;7.50;59.30;;;;;;4985027;28;20450;-86
2023/01/31 02:37:57;;;;;;;13.70;3.97;;;7.50;59.30;;;;;;5001667;28;20683;-87
2023/01/31 02:40:32;;;;;;;14.30;4.80;;;7.50;59.60;;;;;;4976561;28;20450;-86
2023/01/31 02:43:05;;;;;;;14.83;4.87;;;7.50;59.40;;;;;;4985342;28;20468;-88
2023/01/31 02:45:40;;;;;;;9.63;4.17;;;7.30;60.20;;;;;;4989692;28;20557;-86
2023/01/31 02:48:22;;;;;;;8.83;4.20;;;7.40;60.00;;;;;;4994577;28;20928;-85
2023/01/31 02:50:59;;;;;;;11.13;3.80;;;7.20;59.90;;;;;;4985454;28;20987;-87
2023/01/31 02:53:33;;;;;;;8.97;4.80;;;7.20;60.70;;;;;;4983985;28;20502;-87
2023/01/31 02:56:14;;;;;;;11.73;4.57;;;7.20;60.70;;;;;;4995057;28;20564;-87
2023/01/31 02:58:44;;;;;;;7.53;4.43;;;7.40;60.40;;;;;;4974222;28;20450;-87
2023/01/31 03:01:16;;;;;;;9.83;4.93;;;7.40;60.00;;;;;;5005443;28;20497;-88
2023/01/31 03:03:46;;;;;;;12.67;5.23;;;7.40;60.50;;;;;;4996901;28;20465;-87
2023/01/31 03:06:58;;;;;;;11.83;5.83;;;7.60;60.10;;;;;;4965472;28;20472;-87
2023/01/31 03:09:39;;;;;;;17.27;4.87;;;7.60;59.90;;;;;;4921465;28;20982;-87
2023/01/31 03:12:32;;;;;;;8.00;5.03;;;7.60;59.80;;;;;;4915979;28;20445;-88
2023/01/31 03:18:23;;;;;;;9.87;4.97;;;7.40;60.20;;;;;;4997718;28;20539;-87
2023/01/31 03:20:55;;;;;;;12.37;4.60;;;7.30;60.40;;;;;;5021476;28;20447;-88
2023/01/31 03:23:30;;;;;;;7.03;4.13;;;7.50;60.00;;;;;;4972015;28;20843;-86
2023/01/31 03:25:59;;;;;;;6.67;4.53;;;7.50;59.80;;;;;;4965845;28;20450;-87
2023/01/31 03:28:30;;;;;;;9.83;4.90;;;7.50;59.80;;;;;;4994892;28;20615;-85
2023/01/31 03:31:04;;;;;;;7.20;3.60;;;7.70;59.80;;;;;;5005205;28;21007;-87
2023/01/31 03:33:35;;;;;;;10.80;3.60;;;7.70;59.30;;;;;;4988007;28;20473;-87
2023/01/31 03:36:12;;;;;;;11.90;4.10;;;7.70;59.40;;;;;;4988772;28;20458;-87
2023/01/31 03:38:48;;;;;;;7.20;3.23;;;7.50;59.50;;;;;;4980443;28;20492;-87
2023/01/31 03:41:24;;;;;;;14.13;4.27;;;7.40;59.70;;;;;;4966223;28;20478;-87
2023/01/31 03:43:59;;;;;;;14.23;4.37;;;7.30;59.90;;;;;;4991280;28;20485;-86
2023/01/31 03:46:30;;;;;;;8.33;4.70;;;7.40;59.80;;;;;;5005513;28;20520;-86
2023/01/31 03:49:00;;;;;;;7.50;4.80;;;7.50;59.80;;;;;;4964563;28;20521;-87
2023/01/31 03:51:33;;;;;;;10.53;4.30;;;7.40;59.40;;;;;;4987690;28;21026;-85
2023/01/31 03:54:05;;;;;;;11.37;3.97;;;7.30;59.80;;;;;;4973171;28;20478;-87
2023/01/31 03:56:37;;;;;;;12.77;4.10;;;7.40;59.70;;;;;;4986156;28;20546;-87
2023/01/31 03:59:10;;;;;;;17.23;4.10;;;7.30;59.80;;;;;;4988471;28;20873;-87
2023/01/31 04:01:40;;;;;;;8.20;4.30;;;7.30;59.80;;;;;;4986566;28;20964;-87
2023/01/31 04:04:11;;;;;;;6.70;3.73;;;7.30;59.90;;;;;;4971487;28;20594;-87
2023/01/31 04:06:40;;;;;;;15.80;3.97;;;7.50;59.80;;;;;;4970786;28;20585;-87
2023/01/31 04:09:09;;;;;;;9.33;3.43;;;7.50;59.50;;;;;;4987029;28;20909;-87
2023/01/31 04:11:38;;;;;;;8.80;4.20;;;7.20;59.70;;;;;;4971128;28;20490;-86
2023/01/31 04:14:06;;;;;;;11.03;2.80;;;7.20;60.00;;;;;;4966607;28;20470;-85
2023/01/31 04:16:33;;;;;;;13.93;4.30;;;7.40;59.50;;;;;;4977181;28;20451;-86
2023/01/31 04:19:00;;;;;;;7.80;3.17;;;7.50;59.10;;;;;;4988720;28;20522;-88
2023/01/31 04:21:27;;;;;;;16.43;4.33;;;7.50;59.10;;;;;;5005630;28;20446;-88
2023/01/31 04:23:55;;;;;;;6.40;3.07;;;7.40;59.10;;;;;;4965740;28;21042;-87
2023/01/31 04:26:22;;;;;;;9.17;3.00;;;7.50;58.80;;;;;;4989868;28;20447;-87
2023/01/31 04:28:50;;;;;;;6.87;5.50;;;7.70;58.70;;;;;;4990280;28;20461;-87
2023/01/31 04:31:17;;;;;;;7.20;2.47;;;7.60;58.40;;;;;;4975648;28;20455;-86
2023/01/31 04:33:44;;;;;;;7.60;3.23;;;7.60;58.00;;;;;;4990064;28;20474;-86
2023/01/31 04:36:11;;;;;;;4.20;2.60;;;7.40;59.40;;;;;;4988408;28;20458;-87
2023/01/31 04:38:38;;;;;;;9.53;2.90;;;7.50;58.30;;;;;;4987399;28;20480;-87
2023/01/31 04:41:06;;;;;;;9.00;3.90;;;7.30;58.50;;;;;;4973386;28;20447;-87
2023/01/31 04:43:33;;;;;;;7.17;3.37;;;7.40;58.40;;;;;;4989113;28;20719;-87
2023/01/31 04:46:00;;;;;;;4.93;3.37;;;7.60;58.00;;;;;;4972658;28;20446;-87
2023/01/31 04:48:27;;;;;;;9.90;3.43;;;7.50;57.70;;;;;;5003726;28;20787;-87
2023/01/31 04:50:54;;;;;;;7.40;3.30;;;7.40;57.80;;;;;;4989612;28;20838;-87
2023/01/31 04:53:21;;;;;;;8.33;3.07;;;7.30;58.30;;;;;;4997049;28;20485;-87
2023/01/31 04:55:48;;;;;;;7.23;3.60;;;7.30;58.20;;;;;;4983242;28;20868;-86
2023/01/31 04:58:17;;;;;;;5.03;2.77;;;7.40;57.80;;;;;;4990125;28;20470;-87
2023/01/31 05:00:44;;;;;;;5.77;4.10;;;7.30;58.10;;;;;;5022199;28;20683;-87
2023/01/31 05:03:12;;;;;;;6.50;2.77;;;7.40;57.90;;;;;;5004619;28;20478;-86
2023/01/31 05:05:39;;;;;;;5.03;2.83;;;7.50;57.80;;;;;;4979330;28;20469;-86
2023/01/31 05:08:06;;;;;;;12.13;3.80;;;7.70;57.40;;;;;;4988753;28;20492;-86
2023/01/31 05:10:35;;;;;;;9.77;3.80;;;7.30;57.40;;;;;;5019873;28;20519;-86
2023/01/31 05:13:03;;;;;;;15.53;3.13;;;7.40;57.40;;;;;;4973548;28;20831;-86
2023/01/31 05:15:32;;;;;;;12.57;7.37;;;7.30;57.80;;;;;;4985985;28;20454;-87
2023/01/31 05:18:01;;;;;;;95.20;37.20;;;7.30;57.70;;;;;;4970462;28;20490;-87
2023/01/31 05:20:29;;;;;;;40.00;16.90;;;7.30;57.80;;;;;;4976246;28;20450;-86
2023/01/31 05:22:57;;;;;;;13.67;6.30;;;7.30;57.80;;;;;;4980210;28;20449;-87
2023/01/31 05:25:24;;;;;;;12.80;6.67;;;7.50;57.60;;;;;;4982398;28;20454;-87
2023/01/31 05:27:51;;;;;;;11.73;3.80;;;7.60;57.50;;;;;;4973587;28;21417;-86
2023/01/31 05:30:18;;;;;;;9.70;4.67;;;7.50;57.20;;;;;;4987703;28;21275;-87
2023/01/31 05:32:48;;;;;;;15.83;5.60;;;7.40;57.30;;;;;;4999217;28;20459;-86
2023/01/31 05:35:16;;;;;;;9.67;5.27;;;7.20;57.80;;;;;;4985096;28;20539;-87
2023/01/31 05:37:44;;;;;;;14.17;4.97;;;7.20;57.90;;;;;;4992772;28;20478;-87
2023/01/31 05:40:13;;;;;;;6.07;3.10;;;7.20;57.90;;;;;;4998943;28;20529;-86
2023/01/31 05:42:40;;;;;;;8.47;3.47;;;7.30;57.70;;;;;;4981174;28;20451;-87
2023/01/31 05:45:09;;;;;;;7.80;4.17;;;7.40;57.40;;;;;;4957530;28;20458;-89
2023/01/31 05:47:36;;;;;;;16.00;4.17;;;7.40;57.20;;;;;;4986411;28;21430;-87
2023/01/31 05:50:05;;;;;;;17.70;6.53;;;7.60;56.80;;;;;;4968432;28;20453;-88
2023/01/31 05:52:32;;;;;;;13.60;3.80;;;7.70;56.40;;;;;;4963261;28;20461;-87
2023/01/31 05:54:59;;;;;;;7.10;4.33;;;7.70;56.30;;;;;;4990627;28;20474;-88
2023/01/31 05:57:26;;;;;;;19.67;6.60;;;7.70;56.10;;;;;;4975117;28;20462;-86
2023/01/31 05:59:53;;;;;;;14.03;5.53;;;7.80;56.00;;;;;;5015232;28;20950;-87
2023/01/31 06:02:20;;;;;;;19.57;8.50;;;7.90;55.70;;;;;;4997895;28;21017;-87
2023/01/31 06:04:47;;;;;;;12.53;5.23;;;8.00;55.50;;;;;;4968447;28;20641;-87
2023/01/31 06:07:15;;;;;;;10.83;4.53;;;8.00;55.20;;;;;;4976240;28;20786;-87
2023/01/31 06:09:42;;;;;;;32.43;11.70;;;7.80;55.20;;;;;;4994498;28;20459;-87
2023/01/31 06:12:12;;;;;;;22.40;10.30;;;7.80;55.30;;;;;;4969981;28;20454;-87
2023/01/31 06:14:39;;;;;;;15.67;8.90;;;7.90;55.10;;;;;;4976134;28;20485;-86
2023/01/31 06:17:06;;;;;;;7.50;4.20;;;7.80;55.00;;;;;;4981302;28;20778;-87
2023/01/31 06:19:33;;;;;;;11.80;3.63;;;7.80;55.00;;;;;;4964520;28;20478;-87
2023/01/31 06:21:59;;;;;;;12.53;3.87;;;7.80;54.60;;;;;;4975349;28;20482;-87
2023/01/31 06:24:28;;;;;;;6.90;2.57;;;7.60;54.90;;;;;;4995871;28;20474;-86
2023/01/31 06:26:55;;;;;;;9.77;5.07;;;7.60;55.30;;;;;;4974032;28;20451;-86
2023/01/31 06:29:22;;;;;;;7.53;3.63;;;7.70;55.20;;;;;;4981832;28;20846;-86
2023/01/31 06:31:49;;;;;;;13.67;2.33;;;7.60;55.00;;;;;;4989730;28;20462;-88
2023/01/31 06:34:16;;;;;;;6.47;2.90;;;7.70;55.10;;;;;;4979414;28;20471;-86
2023/01/31 06:36:43;;;;;;;15.10;3.67;;;7.70;54.80;;;;;;4979509;28;20466;-85
2023/01/31 06:39:11;;;;;;;9.90;3.07;;;7.80;54.30;;;;;;4982891;28;20917;-87
2023/01/31 06:41:39;;;;;;;14.07;4.77;;;7.80;54.40;;;;;;4984433;28;20524;-87
2023/01/31 06:44:06;;;;;;;7.97;3.90;;;7.80;54.30;;;;;;4986578;28;21340;-86
2023/01/31 06:46:34;;;;;;;11.17;3.23;;;7.80;54.20;;;;;;4967888;28;20454;-86
2023/01/31 06:49:01;;;;;;;22.60;3.30;;;7.80;53.90;;;;;;4985768;28;20975;-86
2023/01/31 06:51:28;;;;;;;8.10;3.60;;;7.90;53.90;;;;;;4965190;28;20450;-86
2023/01/31 06:53:55;;;;;;;8.90;3.80;;;7.80;53.70;;;;;;4986355;28;20874;-87
2023/01/31 06:56:22;;;;;;;8.77;3.30;;;7.70;53.60;;;;;;4999461;28;20575;-86
2023/01/31 06:58:50;;;;;;;5.47;4.03;;;7.80;54.00;;;;;;4985707;28;20462;-85
2023/01/31 07:01:18;;;;;;;5.27;3.30;;;7.90;53.70;;;;;;5017551;28;20465;-85
2023/01/31 07:03:44;;;;;;;8.00;3.07;;;7.90;53.60;;;;;;5019598;28;20466;-85
2023/01/31 07:06:12;;;;;;;7.40;2.87;;;7.80;53.50;;;;;;5002666;28;20472;-85
2023/01/31 07:08:39;;;;;;;5.93;3.10;;;7.70;53.80;;;;;;4982324;28;20561;-86
2023/01/31 07:11:06;;;;;;;16.03;3.17;;;7.70;53.80;;;;;;4961834;28;20490;-85
2023/01/31 07:13:33;;;;;;;4.50;3.30;;;7.70;53.80;;;;;;4979882;28;20516;-85
2023/01/31 07:16:02;;;;;;;4.60;2.60;;;7.80;53.70;;;;;;4969556;28;20462;-86
2023/01/31 07:18:29;;;;;;;8.30;2.67;;;7.70;53.80;;;;;;5019113;28;20486;-85
2023/01/31 07:20:55;;;;;;;12.40;6.60;;;7.40;54.10;;;;;;5001165;28;20825;-86
2023/01/31 07:23:22;;;;;;;10.67;5.10;;;7.40;54.60;;;;;;4967500;28;20458;-87
2023/01/31 07:25:49;;;;;;;15.87;4.30;;;7.30;54.60;;;;;;4988292;28;20462;-85
2023/01/31 07:28:16;;;;;;;4.37;2.30;;;7.40;55.00;;;;;;4971332;28;20490;-86
2023/01/31 07:30:45;;;;;;;8.47;3.10;;;7.20;55.20;;;;;;5002140;28;20509;-86
2023/01/31 07:33:13;;;;;;;5.03;2.90;;;7.20;55.60;;;;;;4999715;28;20478;-85
2023/01/31 07:35:41;;;;;;;7.07;4.40;;;7.10;56.20;;;;;;4985786;28;20450;-86
2023/01/31 07:38:08;;;;;;;8.20;3.27;;;7.00;55.80;;;;;;4984094;28;20466;-85
2023/01/31 07:40:35;;;;;;;4.60;2.53;;;7.10;55.90;;;;;;4993682;28;20533;-86
2023/01/31 07:43:02;;;;;;;5.73;3.03;;;7.10;55.90;;;;;;4990686;28;20457;-85
2023/01/31 07:45:29;;;;;;;11.37;4.17;;;7.30;55.60;;;;;;4961138;28;20826;-85
2023/01/31 07:47:58;;;;;;;10.17;3.57;;;7.50;55.30;;;;;;4978225;28;20430;-85
2023/01/31 07:50:26;;;;;;;6.60;3.57;;;7.70;55.00;;;;;;4967907;28;20627;-86
2023/01/31 07:52:54;;;;;;;6.27;3.13;;;7.70;55.10;;;;;;4967758;28;20474;-85
2023/01/31 07:55:20;;;;;;;9.63;4.10;;;7.70;55.20;;;;;;4966879;28;20459;-86
2023/01/31 07:57:47;;;;;;;8.20;3.00;;;7.60;55.00;;;;;;4985058;28;20465;-86
2023/01/31 08:05:41;;;;;;;7.33;3.77;;;7.80;55.00;;;;;;4998681;28;20473;-85
2023/01/31 08:08:11;;;;;;;7.13;3.90;;;7.80;54.80;;;;;;4983471;28;20550;-85
2023/01/31 08:10:39;;;;;;;8.10;3.90;;;7.90;55.00;;;;;;4959345;28;21055;-86
2023/01/31 08:13:06;;;;;;;7.30;4.20;;;8.00;54.80;;;;;;4967424;28;20562;-86
2023/01/31 08:15:33;;;;;;;5.53;2.77;;;8.20;54.90;;;;;;4967757;28;20482;-86
2023/01/31 08:18:00;;;;;;;10.97;3.10;;;8.30;54.70;;;;;;4976283;28;20478;-85
2023/01/31 08:20:27;;;;;;;14.20;3.20;;;8.40;54.40;;;;;;4968112;28;21112;-86
2023/01/31 08:22:57;;;;;;;8.33;3.73;;;8.50;54.10;;;;;;4999591;28;20472;-86
2023/01/31 08:25:25;;;;;;;6.93;3.50;;;8.50;54.60;;;;;;4999995;28;20968;-86
2023/01/31 08:27:52;;;;;;;8.50;3.30;;;8.50;54.10;;;;;;4988098;28;20446;-86
2023/01/31 08:30:19;;;;;;;10.47;3.63;;;8.60;54.20;;;;;;4963750;28;20461;-86
2023/01/31 08:32:46;;;;;;;7.90;5.00;;;8.40;54.20;;;;;;4958559;28;20450;-87
2023/01/31 08:35:13;;;;;;;14.13;4.03;;;8.40;54.40;;;;;;4999987;28;20454;-86
2023/01/31 08:37:40;;;;;;;10.53;3.00;;;8.30;54.20;;;;;;4983850;28;20465;-86
2023/01/31 08:40:10;;;;;;;13.77;3.93;;;8.30;54.30;;;;;;4966820;28;20478;-86
2023/01/31 08:42:37;;;;;;;6.90;3.07;;;8.30;54.10;;;;;;4999620;28;20976;-86
2023/01/31 08:45:05;;;;;;;11.83;3.80;;;8.20;54.80;;;;;;4982533;28;20507;-86
2023/01/31 08:47:32;;;;;;;7.73;3.03;;;8.20;54.50;;;;;;4999403;28;20480;-87
2023/01/31 08:49:59;;;;;;;8.17;2.40;;;8.30;54.40;;;;;;4969848;28;20451;-85
2023/01/31 08:52:26;;;;;;;10.60;2.67;;;8.30;54.40;;;;;;4992553;28;20455;-86
2023/01/31 08:54:53;;;;;;;6.00;3.10;;;7.90;55.30;;;;;;4968444;28;21031;-88
2023/01/31 08:57:21;;;;;;;10.40;2.93;;;8.00;55.10;;;;;;4981910;28;20957;-85
2023/01/31 08:59:48;;;;;;;8.80;3.63;;;8.00;55.10;;;;;;4967601;28;20558;-87
2023/01/31 09:02:16;;;;;;;7.30;3.60;;;8.30;54.80;;;;;;4999299;28;20450;-87
2023/01/31 09:04:45;;;;;;;6.20;4.00;;;8.20;54.40;;;;;;4997991;28;20477;-85
2023/01/31 09:07:20;;;;;;;16.70;3.53;;;8.20;54.50;;;;;;4976317;28;20467;-88
2023/01/31 09:09:48;;;;;;;7.97;4.10;;;8.20;54.10;;;;;;4992698;28;20442;-86
2023/01/31 09:12:15;;;;;;;7.40;3.27;;;8.30;54.30;;;;;;4980603;28;20509;-86
2023/01/31 09:14:43;;;;;;;7.33;4.10;;;8.30;54.20;;;;;;4981153;28;20851;-86
2023/01/31 09:17:10;;;;;;;9.53;3.47;;;8.30;54.30;;;;;;4978590;28;21278;-87
2023/01/31 09:19:37;;;;;;;4.90;2.60;;;8.30;54.30;;;;;;4988502;28;20477;-86
2023/01/31 09:22:04;;;;;;;10.73;2.80;;;8.40;54.10;;;;;;4984583;28;20506;-86
2023/01/31 09:24:31;;;;;;;8.13;3.73;;;8.40;53.90;;;;;;4963703;28;20996;-86
2023/01/31 09:26:58;;;;;;;24.07;3.07;;;8.60;54.10;;;;;;4964118;28;20458;-87
2023/01/31 09:29:26;;;;;;;7.60;4.60;;;8.50;53.50;;;;;;4997551;28;20473;-84
2023/01/31 09:31:55;;;;;;;7.00;2.37;;;8.70;53.20;;;;;;5000143;28;20505;-86
2023/01/31 09:34:22;;;;;;;3.43;3.13;;;8.60;52.20;;;;;;4965995;28;20568;-86
2023/01/31 09:36:49;;;;;;;5.60;2.70;;;8.40;53.10;;;;;;4970961;28;20449;-85
2023/01/31 09:39:15;;;;;;;5.93;3.47;;;8.30;53.90;;;;;;4981675;28;20486;-85
2023/01/31 09:41:47;;;;;;;7.80;3.77;;;8.10;53.40;;;;;;4996558;28;20451;-85
2023/01/31 09:44:19;;;;;;;12.13;4.60;;;8.20;53.80;;;;;;4980216;28;20976;-85
2023/01/31 09:46:51;;;;;;;8.77;3.40;;;8.20;54.00;;;;;;4998587;28;20450;-86
2023/01/31 09:49:23;;;;;;;7.40;3.93;;;8.20;53.90;;;;;;4970091;28;20455;-86
2023/01/31 09:51:55;;;;;;;7.60;4.37;;;8.20;53.80;;;;;;4997223;28;20454;-86
2023/01/31 09:54:28;;;;;;;8.53;3.67;;;8.10;53.30;;;;;;4984352;28;20478;-85
2023/01/31 09:57:04;;;;;;;10.40;3.93;;;8.00;54.10;;;;;;4979768;28;20549;-86
2023/01/31 09:59:42;;;;;;;11.20;4.00;;;8.00;54.50;;;;;;5012131;28;20478;-86
2023/01/31 10:02:28;;;;;;;7.40;3.97;;;7.80;54.30;;;;;;4991025;28;20469;-85
2023/01/31 10:05:11;;;;;;;10.73;5.00;;;7.90;54.80;;;;;;5014202;28;20510;-86
2023/01/31 10:07:43;;;;;;;9.13;4.03;;;7.90;55.00;;;;;;4992374;28;20473;-86
2023/01/31 10:10:19;;;;;;;6.90;4.43;;;8.00;54.40;;;;;;4981597;28;20459;-86
2023/01/31 10:12:49;;;;;;;6.77;3.70;;;8.10;54.50;;;;;;4979532;28;20453;-86
2023/01/31 10:15:22;;;;;;;17.43;5.53;;;8.10;54.60;;;;;;4960364;28;20471;-85
2023/01/31 10:17:55;;;;;;;9.93;4.83;;;8.30;54.50;;;;;;4995660;28;20473;-86
2023/01/31 10:20:33;;;;;;;26.80;16.03;;;8.40;54.10;;;;;;4983095;28;20554;-86
2023/01/31 10:23:05;;;;;;;6.93;4.43;;;8.60;53.90;;;;;;4964785;28;20463;-85
2023/01/31 10:25:37;;;;;;;9.23;4.93;;;8.50;53.60;;;;;;4981207;28;20450;-85
2023/01/31 10:28:11;;;;;;;13.47;3.73;;;8.50;54.20;;;;;;4982590;28;20443;-86
2023/01/31 10:30:44;;;;;;;10.97;3.90;;;8.50;53.90;;;;;;4978804;28;20446;-86
2023/01/31 10:33:23;;;;;;;10.57;3.97;;;8.40;54.10;;;;;;4964490;28;20481;-86
2023/01/31 10:35:55;;;;;;;6.83;4.03;;;8.30;53.50;;;;;;4967638;28;20450;-84
2023/01/31 10:38:27;;;;;;;5.63;3.60;;;8.40;53.80;;;;;;5012534;28;20477;-85
2023/01/31 10:40:59;;;;;;;9.03;3.93;;;8.20;54.10;;;;;;4987432;28;20488;-84
2023/01/31 10:43:36;;;;;;;11.73;4.57;;;8.20;54.50;;;;;;5012055;28;20476;-86
2023/01/31 10:46:10;;;;;;;7.97;4.57;;;8.50;54.40;;;;;;4976973;28;20462;-86
2023/01/31 10:48:37;;;;;;;9.90;3.73;;;8.50;53.70;;;;;;4990491;28;20746;-86
2023/01/31 10:51:15;;;;;;;7.80;4.20;;;8.60;54.20;;;;;;4964260;28;20505;-86
2023/01/31 10:53:55;;;;;;;8.40;3.70;;;8.50;53.80;;;;;;5012516;28;20481;-86
2023/01/31 10:56:30;;;;;;;7.90;3.83;;;8.30;54.20;;;;;;4983672;28;20450;-86
2023/01/31 10:58:59;;;;;;;12.20;4.30;;;8.40;54.40;;;;;;4964240;28;20458;-86
2023/01/31 11:01:26;;;;;;;6.67;4.20;;;8.40;54.80;;;;;;4978575;28;20446;-86
2023/01/31 11:03:55;;;;;;;17.10;4.30;;;8.50;54.30;;;;;;4982825;28;20466;-85
2023/01/31 11:06:24;;;;;;;10.40;4.93;;;8.40;54.10;;;;;;4983944;28;22195;-85
2023/01/31 11:08:55;;;;;;;13.33;4.10;;;8.40;54.50;;;;;;4983301;28;20474;-87
2023/01/31 11:11:24;;;;;;;9.67;5.30;;;8.50;54.80;;;;;;5000949;28;20443;-87
2023/01/31 11:14:00;;;;;;;12.93;3.90;;;8.40;54.30;;;;;;4978362;28;20470;-86
2023/01/31 11:16:30;;;;;;;9.47;4.70;;;8.40;54.90;;;;;;4981983;28;20545;-85
2023/01/31 11:18:58;;;;;;;7.90;4.23;;;8.30;54.90;;;;;;5005639;28;20879;-86
2023/01/31 11:21:30;;;;;;;17.77;4.53;;;8.20;55.10;;;;;;4989348;28;20963;-85
2023/01/31 11:24:03;;;;;;;11.57;4.67;;;8.20;55.10;;;;;;4982569;28;20497;-87
2023/01/31 11:26:32;;;;;;;11.93;4.20;;;8.30;55.20;;;;;;4961217;28;20534;-85
2023/01/31 11:29:01;;;;;;;12.53;4.57;;;8.20;55.60;;;;;;5016052;28;20504;-85
2023/01/31 11:31:31;;;;;;;14.17;4.80;;;8.20;55.70;;;;;;4984293;28;20431;-86
2023/01/31 11:34:00;;;;;;;14.43;5.90;;;8.40;56.00;;;;;;4999464;28;21010;-87
2023/01/31 11:36:33;;;;;;;8.57;4.07;;;8.20;55.40;;;;;;4978187;28;20890;-87
2023/01/31 11:39:13;;;;;;;8.63;4.10;;;8.10;55.70;;;;;;4965774;28;20990;-87
2023/01/31 11:41:42;;;;;;;11.13;4.60;;;7.70;56.10;;;;;;4972934;28;20458;-87
2023/01/31 11:44:14;;;;;;;9.00;4.90;;;7.80;56.70;;;;;;4994322;28;21111;-86
2023/01/31 11:46:45;;;;;;;12.33;4.20;;;7.80;56.50;;;;;;4997858;28;21103;-87
2023/01/31 11:49:14;;;;;;;10.40;5.07;;;7.80;56.50;;;;;;4999837;28;20564;-86
2023/01/31 11:51:44;;;;;;;10.87;6.97;;;7.80;56.60;;;;;;4987704;28;20450;-87
2023/01/31 11:54:19;;;;;;;7.47;5.33;;;7.70;56.50;;;;;;4998980;28;20474;-86
2023/01/31 11:56:46;;;;;;;7.60;5.13;;;7.80;57.00;;;;;;4997700;28;20442;-86
2023/01/31 11:59:17;;;;;;;7.10;4.37;;;7.70;56.30;;;;;;5017285;28;20976;-86
2023/01/31 12:01:47;;;;;;;19.50;9.90;;;7.80;56.60;;;;;;5000783;28;20458;-86
2023/01/31 12:04:17;;;;;;;16.23;7.67;;;8.00;56.60;;;;;;4998676;28;20462;-86
2023/01/31 12:06:58;;;;;;;16.93;7.90;;;8.30;56.40;;;;;;4978825;28;20458;-86
2023/01/31 12:09:28;;;;;;;12.97;6.07;;;8.60;55.60;;;;;;4990594;28;21028;-87
2023/01/31 12:11:57;;;;;;;11.63;4.83;;;8.50;54.80;;;;;;4995469;28;20446;-86
2023/01/31 12:14:35;;;;;;;15.40;5.03;;;8.40;55.30;;;;;;4966695;28;20482;-87
2023/01/31 12:17:02;;;;;;;15.07;5.60;;;8.40;54.80;;;;;;4985271;28;20696;-86
2023/01/31 12:19:42;;;;;;;14.27;5.60;;;8.30;55.40;;;;;;4982422;28;20564;-84
2023/01/31 12:22:16;;;;;;;8.83;4.40;;;8.40;55.20;;;;;;4984646;28;20890;-86
2023/01/31 12:24:55;;;;;;;20.60;7.40;;;8.30;55.40;;;;;;4960662;28;20493;-87
2023/01/31 12:27:32;;;;;;;8.50;5.37;;;8.30;55.20;;;;;;4983089;28;20453;-87
2023/01/31 12:30:17;;;;;;;13.97;5.80;;;8.20;55.60;;;;;;4985796;28;20454;-86
2023/01/31 12:32:57;;;;;;;17.57;4.30;;;8.20;55.60;;;;;;4982060;28;20465;-87
2023/01/31 12:35:43;;;;;;;15.87;9.70;;;8.10;55.60;;;;;;4979873;28;20450;-87
2023/01/31 12:38:22;;;;;;;10.70;4.37;;;8.20;55.80;;;;;;5000549;28;20684;-86
2023/01/31 12:40:59;;;;;;;7.83;4.40;;;8.30;55.60;;;;;;4983875;28;21309;-86
2023/01/31 12:43:47;;;;;;;12.70;5.80;;;8.20;55.40;;;;;;5015577;28;20982;-87
2023/01/31 12:46:22;;;;;;;8.13;4.57;;;8.20;55.70;;;;;;4998484;28;20462;-86
2023/01/31 12:49:21;;;;;;;12.90;7.07;;;8.50;55.20;;;;;;4968410;28;21521;-86
2023/01/31 12:51:58;;;;;;;10.90;5.60;;;8.30;55.20;;;;;;4960180;28;20967;-87
2023/01/31 12:54:41;;;;;;;12.00;5.10;;;8.40;55.70;;;;;;4984680;28;20482;-88
2023/01/31 12:57:25;;;;;;;11.93;7.33;;;8.40;55.30;;;;;;4971513;28;20466;-85
2023/01/31 13:00:01;;;;;;;15.50;5.73;;;8.40;55.40;;;;;;4994841;28;20467;-87
2023/01/31 13:02:38;;;;;;;10.77;5.87;;;8.40;55.40;;;;;;4985904;28;20446;-86
2023/01/31 13:05:16;;;;;;;14.30;6.17;;;8.50;55.40;;;;;;4993887;28;20493;-86
2023/01/31 13:07:48;;;;;;;9.90;5.13;;;8.30;55.60;;;;;;4983958;28;20441;-86
2023/01/31 13:10:29;;;;;;;10.57;4.60;;;8.20;56.10;;;;;;4985808;28;20576;-86
2023/01/31 13:12:58;;;;;;;13.00;5.77;;;8.30;55.80;;;;;;4985241;28;21788;-87
2023/01/31 13:15:31;;;;;;;54.30;26.40;;;8.10;56.00;;;;;;4986970;28;20435;-87
2023/01/31 13:18:03;;;;;;;15.60;7.60;;;8.20;56.30;;;;;;4979084;28;20958;-87
2023/01/31 13:20:36;;;;;;;12.20;8.07;;;8.00;56.50;;;;;;4986149;28;20512;-86